Time;durP1;ratioP1;P1;durP2;ratioP2;P2;SDS_P1;SDS_P2;PMS_P1;PMS_P2;Temp;Humidity;BMP_temperature;BMP_pressure;BME280_temperature;BME280_humidity;BME280_pressure;Samples;Min_cycle;Max_cycle;Signal;HPM_P1;HPM_P2
2021/04/27 00:01:24;;;;;;;5.87;2.20;;;;;;;9.77;38.09;101354.34;5104765;28;20497;-53
2021/04/27 00:03:50;;;;;;;11.80;4.27;;;;;;;9.59;38.35;101352.56;5107036;28;20540;-52
2021/04/27 00:06:17;;;;;;;8.07;2.60;;;;;;;9.52;38.74;101353.91;5103900;28;20476;-52
2021/04/27 00:08:44;;;;;;;11.10;4.33;;;;;;;9.30;39.01;101355.28;5105370;28;20458;-52
2021/04/27 00:11:11;;;;;;;7.23;3.40;;;;;;;9.40;38.85;101348.06;5096683;28;20879;-51
2021/04/27 00:13:38;;;;;;;8.50;3.80;;;;;;;9.25;39.11;101356.72;5096115;28;20915;-49
2021/04/27 00:16:05;;;;;;;6.10;2.30;;;;;;;9.38;38.83;101354.81;5094238;28;20548;-51
2021/04/27 00:18:32;;;;;;;5.53;2.00;;;;;;;9.30;38.48;101344.09;5096399;28;20541;-51
2021/04/27 00:20:59;;;;;;;15.80;5.70;;;;;;;9.27;38.92;101355.09;5093940;28;20482;-53
2021/04/27 00:23:26;;;;;;;5.07;2.30;;;;;;;9.47;38.24;101352.75;5096031;28;20749;-49
2021/04/27 00:25:53;;;;;;;5.17;1.90;;;;;;;9.27;38.94;101338.75;5093940;28;20536;-50
2021/04/27 00:28:20;;;;;;;7.63;2.77;;;;;;;9.24;38.96;101344.63;5095831;28;20914;-49
2021/04/27 00:30:47;;;;;;;6.23;2.50;;;;;;;9.41;38.78;101336.97;5093820;28;20486;-53
2021/04/27 00:33:14;;;;;;;19.17;7.47;;;;;;;9.42;38.72;101339.63;5095398;28;20472;-50
2021/04/27 00:35:40;;;;;;;5.90;2.20;;;;;;;9.18;38.88;101339.16;5093986;28;20474;-50
2021/04/27 00:38:07;;;;;;;5.87;2.23;;;;;;;9.21;39.10;101336.72;5095481;28;20458;-51
2021/04/27 00:40:33;;;;;;;5.10;2.00;;;;;;;8.98;39.46;101331.13;5094043;28;20565;-52
2021/04/27 00:43:00;;;;;;;4.17;1.53;;;;;;;9.15;39.07;101337.28;5095334;28;20460;-50
2021/04/27 00:45:29;;;;;;;7.40;2.20;;;;;;;9.22;39.11;101325.63;5093919;28;20492;-51
2021/04/27 00:47:56;;;;;;;12.63;3.40;;;;;;;9.09;39.28;101325.72;5095761;28;20501;-54
2021/04/27 00:50:25;;;;;;;8.23;2.20;;;;;;;9.15;39.12;101323.50;5094025;28;20857;-49
2021/04/27 00:52:53;;;;;;;6.50;2.20;;;;;;;8.96;39.50;101322.44;5094483;28;20959;-49
2021/04/27 00:55:20;;;;;;;7.07;2.20;;;;;;;8.76;40.18;101329.00;5094570;28;20477;-51
2021/04/27 00:57:47;;;;;;;3.80;1.43;;;;;;;9.03;39.56;101324.56;5095254;28;20486;-52
2021/04/27 01:00:16;;;;;;;5.50;2.17;;;;;;;8.96;39.64;101319.88;5093993;28;20480;-49
2021/04/27 01:02:43;;;;;;;6.40;2.00;;;;;;;9.13;39.11;101319.97;5095396;28;20928;-52
2021/04/27 01:05:13;;;;;;;5.77;2.10;;;;;;;9.15;39.03;101323.50;5094177;28;20955;-51
2021/04/27 01:07:45;;;;;;;5.33;1.73;;;;;;;9.07;39.08;101324.78;5095455;28;20497;-53
2021/04/27 01:10:13;;;;;;;12.77;4.83;;;;;;;9.09;39.00;101323.16;5094019;28;20482;-54
2021/04/27 01:12:43;;;;;;;5.20;2.20;;;;;;;8.94;39.31;101316.34;5095445;28;20444;-50
2021/04/27 01:15:13;;;;;;;8.73;1.87;;;;;;;8.87;39.65;101322.81;5094094;28;20535;-51
2021/04/27 01:17:40;;;;;;;6.77;2.90;;;;;;;9.03;39.23;101319.44;5095614;28;20767;-53
2021/04/27 01:20:10;;;;;;;13.13;5.10;;;;;;;9.08;39.19;101313.66;5093654;28;20493;-52
2021/04/27 01:22:48;;;;;;;7.87;1.93;;;;;;;9.01;39.22;101320.13;5111092;28;20473;-49
2021/04/27 01:25:16;;;;;;;8.93;3.47;;;;;;;9.01;39.35;101315.88;5114029;28;20476;-54
2021/04/27 01:27:44;;;;;;;5.13;2.20;;;;;;;8.90;39.59;101316.97;5115346;28;20449;-52
2021/04/27 01:30:11;;;;;;;4.60;1.83;;;;;;;8.88;39.66;101305.69;5112791;28;20495;-51
2021/04/27 01:32:38;;;;;;;8.70;3.07;;;;;;;8.77;39.73;101305.09;5114972;28;20763;-52
2021/04/27 01:35:06;;;;;;;8.47;3.07;;;;;;;8.85;39.82;101308.06;5112989;28;20484;-54
2021/04/27 01:37:33;;;;;;;5.50;1.67;;;;;;;8.80;40.14;101309.50;5105154;28;20485;-52
2021/04/27 01:40:01;;;;;;;6.17;2.53;;;;;;;8.67;40.31;101313.94;5093528;28;20482;-51
2021/04/27 01:42:27;;;;;;;5.37;2.00;;;;;;;8.77;40.04;101311.09;5095339;28;20484;-53
2021/04/27 01:44:55;;;;;;;9.10;3.80;;;;;;;8.50;40.74;101313.81;5094064;28;20488;-49
2021/04/27 01:47:22;;;;;;;5.80;1.83;;;;;;;8.43;40.85;101310.78;5095799;28;20465;-51
2021/04/27 01:49:48;;;;;;;6.80;2.30;;;;;;;8.76;39.87;101309.31;5093845;28;20858;-51
2021/04/27 01:52:16;;;;;;;12.80;2.87;;;;;;;8.86;40.11;101305.59;5095359;28;20470;-50
2021/04/27 01:54:42;;;;;;;5.63;2.03;;;;;;;8.55;40.68;101308.09;5093814;28;20481;-51
2021/04/27 01:57:09;;;;;;;12.27;4.63;;;;;;;8.85;40.54;101302.94;5095136;28;20478;-52
2021/04/27 01:59:36;;;;;;;7.70;2.57;;;;;;;8.89;39.67;101299.75;5093533;28;20561;-51
2021/04/27 02:02:03;;;;;;;15.37;3.50;;;;;;;8.83;40.59;101301.97;5095140;28;21014;-55
2021/04/27 02:04:30;;;;;;;5.10;2.27;;;;;;;8.67;40.02;101302.75;5096893;28;20476;-50
2021/04/27 02:06:57;;;;;;;6.70;2.87;;;;;;;8.68;40.05;101300.28;5116495;28;20471;-49
2021/04/27 02:09:26;;;;;;;7.07;2.33;;;;;;;8.48;40.18;101297.41;5118197;28;20789;-51
2021/04/27 02:11:54;;;;;;;5.07;1.90;;;;;;;8.64;40.29;101301.78;5119362;28;20472;-54
2021/04/27 02:14:25;;;;;;;7.13;2.53;;;;;;;8.56;40.41;101302.16;5118280;28;20500;-52
2021/04/27 02:16:55;;;;;;;11.80;3.50;;;;;;;8.53;40.47;101304.53;5119683;28;20491;-50
2021/04/27 02:19:24;;;;;;;4.93;2.17;;;;;;;8.50;40.34;101295.81;5118212;28;20472;-49
2021/04/27 02:21:52;;;;;;;5.80;1.80;;;;;;;8.51;40.40;101299.25;5119252;28;20474;-51
2021/04/27 02:24:20;;;;;;;11.10;2.93;;;;;;;8.23;41.21;101300.19;5118097;28;20439;-49
2021/04/27 02:26:47;;;;;;;7.97;2.80;;;;;;;8.41;40.69;101292.66;5119328;28;20474;-52
2021/04/27 02:29:14;;;;;;;6.77;2.50;;;;;;;8.42;40.87;101297.03;5118123;28;20567;-51
2021/04/27 02:31:41;;;;;;;12.10;3.97;;;;;;;8.34;41.03;101295.69;5118878;28;20475;-50
2021/04/27 02:34:08;;;;;;;8.10;3.63;;;;;;;8.10;41.66;101290.84;5117876;28;20467;-52
2021/04/27 02:36:38;;;;;;;5.00;2.00;;;;;;;8.04;41.59;101291.38;5118996;28;20495;-50
2021/04/27 02:39:06;;;;;;;6.20;2.30;;;;;;;8.31;40.89;101278.38;5117928;28;20453;-51
2021/04/27 02:41:33;;;;;;;6.20;2.70;;;;;;;7.84;42.51;101287.56;5118484;28;20496;-49
2021/04/27 02:44:01;;;;;;;7.17;2.40;;;;;;;7.69;42.56;101279.81;5117669;28;20910;-53
2021/04/27 02:46:28;;;;;;;18.93;6.90;;;;;;;8.04;42.50;101282.75;5118886;28;20483;-50
2021/04/27 02:48:55;;;;;;;5.03;2.10;;;;;;;8.11;41.72;101277.22;5118970;28;20464;-50
2021/04/27 02:51:22;;;;;;;6.77;2.40;;;;;;;7.80;42.33;101277.91;5116934;28;20481;-53
2021/04/27 02:53:50;;;;;;;8.00;3.03;;;;;;;7.68;43.56;101273.78;5118795;28;20452;-50
2021/04/27 02:56:16;;;;;;;6.07;2.30;;;;;;;7.63;42.96;101280.31;5117313;28;20928;-51
2021/04/27 02:58:43;;;;;;;9.90;2.50;;;;;;;7.36;44.12;101280.38;5118958;28;20536;-49
2021/04/27 03:01:10;;;;;;;5.07;2.03;;;;;;;7.33;43.93;101274.16;5116714;28;20519;-50
2021/04/27 03:03:37;;;;;;;12.17;4.10;;;;;;;7.42;43.78;101270.50;5118672;28;20502;-51
2021/04/27 03:06:05;;;;;;;6.30;2.80;;;;;;;7.75;43.22;101269.03;5117248;28;20975;-49
2021/04/27 03:08:31;;;;;;;14.40;4.13;;;;;;;7.68;43.10;101271.22;5118518;28;20460;-52
2021/04/27 03:10:59;;;;;;;6.00;2.57;;;;;;;8.05;41.67;101269.13;5116653;28;20487;-50
2021/04/27 03:13:25;;;;;;;6.90;3.00;;;;;;;8.26;41.35;101260.94;5118466;28;20457;-52
2021/04/27 03:15:52;;;;;;;8.10;2.50;;;;;;;8.29;41.20;101266.22;5116319;28;20477;-51
2021/04/27 03:18:19;;;;;;;6.67;2.53;;;;;;;8.52;40.77;101259.94;5118351;28;20477;-53
2021/04/27 03:20:45;;;;;;;7.80;1.75;;;;;;;8.43;40.49;101265.38;5116189;28;20915;-50
2021/04/27 03:23:12;;;;;;;5.50;2.40;;;;;;;8.30;41.44;101260.31;5118404;28;20208;-51
2021/04/27 03:25:39;;;;;;;6.50;2.77;;;;;;;8.42;40.83;101260.16;5116829;28;20536;-49
2021/04/27 03:28:08;;;;;;;5.47;2.10;;;;;;;8.40;41.36;101259.19;5118341;28;20449;-51
2021/04/27 03:30:35;;;;;;;6.77;2.77;;;;;;;8.41;42.46;101248.97;5116553;28;20573;-50
2021/04/27 03:33:02;;;;;;;5.77;2.50;;;;;;;8.29;41.39;101253.38;5117654;28;20453;-51
2021/04/27 03:35:29;;;;;;;13.23;5.63;;;;;;;8.20;41.66;101246.91;5116435;28;20480;-53
2021/04/27 03:37:56;;;;;;;10.23;3.93;;;;;;;7.92;42.94;101254.66;5118176;28;20484;-52
2021/04/27 03:40:23;;;;;;;5.13;2.13;;;;;;;8.21;42.05;101250.38;5116278;28;20477;-51
2021/04/27 03:42:50;;;;;;;5.50;2.00;;;;;;;8.14;41.93;101248.25;5117841;28;20560;-49
2021/04/27 03:45:20;;;;;;;11.20;2.83;;;;;;;8.10;42.42;101247.13;5116342;28;20982;-50
2021/04/27 03:47:47;;;;;;;6.20;2.50;;;;;;;8.01;42.29;101246.59;5118000;28;20449;-51
2021/04/27 03:50:16;;;;;;;9.23;3.10;;;;;;;8.14;43.85;101243.97;5116117;28;20477;-49
2021/04/27 03:52:42;;;;;;;5.53;2.73;;;;;;;7.86;42.97;101251.72;5117831;28;20506;-52
2021/04/27 03:55:10;;;;;;;8.83;2.97;;;;;;;7.71;42.85;101247.41;5115755;28;20481;-53
2021/04/27 03:57:37;;;;;;;6.43;2.37;;;;;;;7.83;42.68;101253.31;5117477;28;20819;-50
2021/04/27 04:00:05;;;;;;;6.03;2.63;;;;;;;7.81;42.62;101256.56;5113913;28;20489;-52
2021/04/27 04:02:32;;;;;;;10.37;3.73;;;;;;;7.87;42.64;101254.38;5116845;28;20476;-54
2021/04/27 04:04:59;;;;;;;7.83;2.80;;;;;;;7.80;42.81;101250.53;5115929;28;20530;-50
2021/04/27 04:07:26;;;;;;;10.43;2.30;;;;;;;7.73;42.98;101255.22;5117283;28;20455;-50
2021/04/27 04:09:52;;;;;;;6.93;2.23;;;;;;;7.75;42.88;101249.34;5115661;28;20480;-52
2021/04/27 04:12:19;;;;;;;11.40;3.40;;;;;;;7.73;43.61;101255.22;5117144;28;20477;-51
2021/04/27 04:14:45;;;;;;;5.70;2.20;;;;;;;7.77;42.72;101252.94;5115657;28;20833;-52
2021/04/27 04:17:12;;;;;;;9.13;2.40;;;;;;;7.77;42.72;101250.38;5116768;28;20484;-51
2021/04/27 04:19:40;;;;;;;10.13;4.00;;;;;;;7.71;43.60;101247.41;5115252;28;20476;-50
2021/04/27 04:22:07;;;;;;;8.90;3.07;;;;;;;7.92;42.74;101255.53;5117155;28;20477;-53
2021/04/27 04:24:34;;;;;;;74.10;28.37;;;;;;;7.55;45.69;101251.59;5115478;28;20477;-51
2021/04/27 04:27:01;;;;;;;36.40;11.50;;;;;;;7.62;44.92;101251.97;5116978;28;20460;-49
2021/04/27 04:29:28;;;;;;;39.50;16.70;;;;;;;7.57;45.11;101249.13;5115247;28;20477;-50
2021/04/27 04:31:54;;;;;;;31.90;15.57;;;;;;;7.56;45.35;101245.69;5116212;28;20896;-50
2021/04/27 04:34:21;;;;;;;26.98;11.60;;;;;;;7.64;45.59;101246.13;5115481;28;20475;-50
2021/04/27 04:36:49;;;;;;;12.57;5.73;;;;;;;7.53;44.58;101250.63;5116927;28;20229;-49
2021/04/27 04:39:16;;;;;;;20.20;9.10;;;;;;;7.55;45.26;101251.59;5115377;28;20559;-50
2021/04/27 04:41:43;;;;;;;29.63;9.70;;;;;;;7.41;45.47;101253.31;5116254;28;20571;-53
2021/04/27 04:44:09;;;;;;;7.53;3.23;;;;;;;7.61;44.80;101247.63;5115586;28;20460;-51
2021/04/27 04:46:37;;;;;;;8.60;2.80;;;;;;;7.77;44.03;101249.47;5116429;28;20867;-51
2021/04/27 04:49:04;;;;;;;15.70;5.73;;;;;;;7.54;44.78;101248.94;5115453;28;20834;-49
2021/04/27 04:51:31;;;;;;;33.23;10.73;;;;;;;7.41;45.86;101253.31;5116054;28;20483;-50
2021/04/27 04:53:59;;;;;;;24.58;8.60;;;;;;;7.57;45.11;101246.56;5115453;28;20456;-54
2021/04/27 04:56:25;;;;;;;20.93;7.43;;;;;;;7.71;45.29;101252.56;5116278;28;20224;-50
2021/04/27 04:58:52;;;;;;;13.17;5.07;;;;;;;7.73;44.81;101256.09;5116272;28;20457;-51
2021/04/27 05:01:19;;;;;;;9.70;4.20;;;;;;;7.79;44.12;101253.03;5114405;28;20534;-53
2021/04/27 05:03:46;;;;;;;19.95;5.53;;;;;;;7.92;44.72;101254.66;5116577;28;20838;-49
2021/04/27 05:06:16;;;;;;;24.97;5.90;;;;;;;7.99;44.44;101248.22;5114724;28;20239;-49
2021/04/27 05:08:45;;;;;;;11.90;4.33;;;;;;;8.07;43.60;101262.41;5116267;28;20454;-51
2021/04/27 05:11:13;;;;;;;14.07;5.03;;;;;;;8.09;43.89;101263.38;5114135;28;20469;-51
2021/04/27 05:13:39;;;;;;;16.87;6.37;;;;;;;8.28;43.33;101267.03;5115790;28;20760;-49
2021/04/27 05:16:08;;;;;;;10.60;4.50;;;;;;;8.19;43.46;101260.56;5114955;28;20469;-51
2021/04/27 05:18:36;;;;;;;20.20;7.87;;;;;;;8.02;43.88;101253.50;5116324;28;20484;-52
2021/04/27 05:21:04;;;;;;;6.80;3.30;;;;;;;8.32;42.95;101258.72;5114130;28;20490;-52
2021/04/27 05:23:30;;;;;;;17.37;7.27;;;;;;;8.46;43.44;101264.69;5115846;28;20460;-51
2021/04/27 05:25:57;;;;;;;23.00;8.80;;;;;;;8.69;43.78;101266.03;5114061;28;20469;-52
2021/04/27 05:28:25;;;;;;;18.07;6.60;;;;;;;8.80;42.89;101268.31;5116188;28;20539;-51
2021/04/27 05:30:52;;;;;;;14.53;4.87;;;;;;;9.00;42.28;101264.31;5114263;28;20499;-52
2021/04/27 05:33:18;;;;;;;9.73;3.70;;;;;;;9.04;41.59;101262.00;5115602;28;20459;-50
2021/04/27 05:35:45;;;;;;;7.53;3.07;;;;;;;9.02;41.82;101265.28;5114331;28;20922;-52
2021/04/27 05:38:12;;;;;;;5.57;2.73;;;;;;;9.47;40.79;101264.31;5115167;28;20518;-51
2021/04/27 05:40:39;;;;;;;7.63;2.67;;;;;;;9.53;40.93;101265.50;5113827;28;20473;-50
2021/04/27 05:43:05;;;;;;;8.80;3.83;;;;;;;9.66;40.81;101271.31;5115914;28;20453;-54
2021/04/27 05:45:34;;;;;;;9.33;4.17;;;;;;;9.74;40.61;101264.88;5114259;28;20560;-55
2021/04/27 05:48:00;;;;;;;14.47;6.03;;;;;;;9.89;40.65;101271.69;5115867;28;20453;-49
2021/04/27 05:50:28;;;;;;;7.07;3.17;;;;;;;9.68;40.80;101270.59;5114635;28;20493;-49
2021/04/27 05:52:54;;;;;;;6.00;2.30;;;;;;;9.75;41.12;101277.00;5115403;28;20482;-51
2021/04/27 05:55:21;;;;;;;14.00;5.70;;;;;;;10.21;39.75;101273.34;5113888;28;20499;-52
2021/04/27 05:57:48;;;;;;;8.00;2.90;;;;;;;10.19;40.02;101277.53;5115731;28;20481;-53
2021/04/27 06:00:15;;;;;;;6.40;2.30;;;;;;;10.54;39.11;101277.59;5114041;28;20476;-50
2021/04/27 06:02:43;;;;;;;10.43;4.50;;;;;;;10.99;38.76;101274.63;5115530;28;20476;-54
2021/04/27 06:05:11;;;;;;;18.83;7.53;;;;;;;11.03;39.69;101273.94;5113731;28;20481;-52
2021/04/27 06:07:38;;;;;;;11.67;5.13;;;;;;;11.15;39.51;101273.66;5115374;28;20545;-52
2021/04/27 06:10:06;;;;;;;8.10;2.60;;;;;;;11.15;38.39;101271.09;5113950;28;20469;-52
2021/04/27 06:12:33;;;;;;;9.20;3.67;;;;;;;11.21;38.68;101273.97;5115402;28;20877;-51
2021/04/27 06:15:00;;;;;;;8.40;3.57;;;;;;;11.73;37.92;101276.28;5114231;28;20587;-51
2021/04/27 06:17:26;;;;;;;13.10;5.27;;;;;;;11.42;37.85;101269.69;5115465;28;20481;-52
2021/04/27 06:19:54;;;;;;;13.50;6.27;;;;;;;11.48;38.77;101276.06;5113889;28;20889;-54
2021/04/27 06:22:20;;;;;;;18.50;6.70;;;;;;;12.09;38.41;101264.94;5115132;28;20481;-54
2021/04/27 06:24:47;;;;;;;6.30;2.57;;;;;;;11.60;38.44;101277.44;5114108;28;20458;-53
2021/04/27 06:27:19;;;;;;;7.30;2.50;;;;;;;11.59;39.28;101275.69;5115171;28;20488;-52
2021/04/27 06:29:48;;;;;;;12.20;4.47;;;;;;;12.00;37.49;101274.06;5113609;28;20488;-52
2021/04/27 06:32:15;;;;;;;10.13;3.80;;;;;;;12.36;37.11;101278.19;5114964;28;20556;-51
2021/04/27 06:34:42;;;;;;;10.70;5.23;;;;;;;12.77;36.83;101285.06;5113757;28;20491;-51
2021/04/27 06:37:10;;;;;;;10.30;3.87;;;;;;;12.62;35.55;101285.31;5115100;28;20463;-50
2021/04/27 06:39:37;;;;;;;15.80;6.03;;;;;;;12.51;36.86;101287.44;5113850;28;20476;-51
2021/04/27 06:42:05;;;;;;;10.83;4.33;;;;;;;12.59;36.03;101283.47;5114717;28;20533;-52
2021/04/27 06:44:31;;;;;;;10.93;4.27;;;;;;;12.33;35.92;101280.66;5113997;28;20830;-50
2021/04/27 06:46:58;;;;;;;9.27;1.90;;;;;;;12.90;35.70;101282.16;5115291;28;20427;-52
2021/04/27 06:49:25;;;;;;;13.87;4.80;;;;;;;12.62;34.71;101274.97;5113648;28;20468;-51
2021/04/27 06:51:52;;;;;;;10.90;1.60;;;;;;;12.28;36.77;101280.47;5118015;28;20789;-52
2021/04/27 06:54:19;;;;;;;5.80;1.93;;;;;;;12.76;34.84;101279.00;5117596;28;20469;-53
2021/04/27 06:56:46;;;;;;;4.30;1.60;;;;;;;11.80;34.97;101273.16;5118586;28;20876;-53
2021/04/27 06:59:33;;;;;;;8.37;2.40;;;;;;;12.14;34.82;101276.38;5117231;28;20447;-52
2021/04/27 07:02:00;;;;;;;5.30;1.77;;;;;;;11.26;36.10;101286.19;5118869;28;20497;-54
2021/04/27 07:04:27;;;;;;;6.00;1.80;;;;;;;11.74;35.46;101271.19;5117590;28;20877;-50
2021/04/27 07:06:53;;;;;;;7.33;2.43;;;;;;;11.81;35.66;101261.13;5118647;28;20449;-55
2021/04/27 07:09:21;;;;;;;8.80;2.13;;;;;;;12.61;35.12;101276.66;5117252;28;20494;-53
2021/04/27 07:11:48;;;;;;;8.60;1.90;;;;;;;12.38;34.44;101278.28;5118119;28;20452;-50
2021/04/27 07:14:14;;;;;;;5.40;2.00;;;;;;;12.48;34.60;101272.69;5117163;28;20428;-51
2021/04/27 07:16:41;;;;;;;7.20;3.10;;;;;;;13.29;35.18;101273.31;5118630;28;20436;-51
2021/04/27 07:19:09;;;;;;;9.40;1.77;;;;;;;13.40;34.54;101262.47;5117116;28;20456;-54
2021/04/27 07:21:37;;;;;;;9.07;3.03;;;;;;;13.37;32.46;101264.13;5117865;28;20784;-54
2021/04/27 07:24:05;;;;;;;4.60;1.70;;;;;;;13.31;33.90;101268.19;5117022;28;20424;-52
2021/04/27 07:26:32;;;;;;;8.03;2.43;;;;;;;13.29;36.70;101262.97;5117978;28;20624;-50
2021/04/27 07:28:59;;;;;;;7.40;2.40;;;;;;;13.40;32.81;101257.28;5116930;28;20425;-54
2021/04/27 07:31:27;;;;;;;14.93;5.53;;;;;;;13.90;34.29;101255.72;5117093;28;20520;-50
2021/04/27 07:33:54;;;;;;;5.77;1.77;;;;;;;13.49;33.00;101257.69;5118077;28;20478;-53
2021/04/27 07:36:21;;;;;;;7.97;2.40;;;;;;;12.91;33.54;101257.13;5116679;28;20478;-52
2021/04/27 07:38:48;;;;;;;4.43;1.80;;;;;;;13.06;34.69;101257.75;5107432;28;20478;-52
2021/04/27 07:41:14;;;;;;;6.97;1.73;;;;;;;13.70;32.34;101251.53;5095459;28;20832;-52
2021/04/27 07:43:42;;;;;;;12.60;2.30;;;;;;;13.58;32.31;101252.81;5115736;28;20440;-54
2021/04/27 07:46:08;;;;;;;5.40;2.00;;;;;;;13.33;32.33;101257.03;5109205;28;20475;-51
2021/04/27 07:48:35;;;;;;;4.60;1.60;;;;;;;13.43;32.05;101247.91;5117685;28;20450;-53
2021/04/27 07:51:02;;;;;;;6.20;2.23;;;;;;;13.56;31.26;101244.13;5116200;28;20478;-55
2021/04/27 07:53:28;;;;;;;4.27;1.80;;;;;;;13.51;31.34;101240.47;5117556;28;20536;-51
2021/04/27 07:55:55;;;;;;;5.73;1.80;;;;;;;13.43;31.78;101241.88;5115987;28;20878;-53
2021/04/27 07:58:22;;;;;;;7.90;2.00;;;;;;;13.75;31.04;101239.63;5117637;28;20486;-50
2021/04/27 08:00:49;;;;;;;9.30;3.60;;;;;;;13.85;30.62;101236.50;5114070;28;20921;-50
2021/04/27 08:03:16;;;;;;;4.80;1.03;;;;;;;13.83;30.32;101237.28;5117400;28;20740;-54
2021/04/27 08:05:43;;;;;;;4.30;1.50;;;;;;;14.04;30.40;101247.53;5115820;28;20454;-53
2021/04/27 08:08:09;;;;;;;4.33;1.53;;;;;;;14.25;30.08;101233.56;5116865;28;20445;-53
2021/04/27 08:10:36;;;;;;;4.53;1.83;;;;;;;14.30;29.85;101238.06;5115478;28;20513;-53
2021/04/27 08:13:03;;;;;;;6.20;1.63;;;;;;;14.29;30.01;101230.22;5117243;28;20524;-51
2021/04/27 08:15:31;;;;;;;5.20;1.50;;;;;;;14.13;29.88;101231.41;5115880;28;20476;-53
2021/04/27 08:18:00;;;;;;;5.03;1.50;;;;;;;14.47;30.05;101226.50;5117071;28;20484;-52
2021/04/27 08:20:29;;;;;;;5.90;1.77;;;;;;;14.75;29.40;101225.72;5115680;28;20483;-54
2021/04/27 08:22:56;;;;;;;3.73;1.40;;;;;;;14.46;29.47;101220.41;5116910;28;20485;-50
2021/04/27 08:25:23;;;;;;;4.63;1.70;;;;;;;14.47;30.07;101231.69;5115586;28;20499;-54
2021/04/27 08:27:50;;;;;;;5.93;1.40;;;;;;;13.90;29.95;101223.72;5116780;28;20917;-49
2021/04/27 08:30:20;;;;;;;3.53;1.43;;;;;;;13.90;29.71;101224.59;5115200;28;20458;-54
2021/04/27 08:32:47;;;;;;;4.80;1.57;;;;;;;14.40;29.20;101226.28;5116519;28;20555;-50
2021/04/27 08:35:15;;;;;;;7.07;3.20;;;;;;;14.72;29.27;101230.78;5115242;28;20484;-50
2021/04/27 08:37:42;;;;;;;10.67;3.80;;;;;;;14.65;28.57;101223.59;5099135;28;20564;-51
2021/04/27 08:40:11;;;;;;;4.20;1.40;;;;;;;14.50;29.06;101227.47;5094677;28;20546;-51
2021/04/27 08:42:38;;;;;;;5.37;1.37;;;;;;;14.37;29.25;101227.91;5096211;28;20491;-49
2021/04/27 08:45:08;;;;;;;7.00;1.70;;;;;;;14.42;28.86;101231.53;5094899;28;20923;-49
2021/04/27 08:47:35;;;;;;;4.37;1.53;;;;;;;14.76;28.13;101224.00;5096039;28;20462;-51
2021/04/27 08:50:02;;;;;;;3.57;1.30;;;;;;;15.07;27.97;101225.84;5113885;28;20784;-52
2021/04/27 08:52:30;;;;;;;3.87;0.93;;;;;;;14.81;27.11;101222.41;5098140;28;20482;-51
2021/04/27 08:54:56;;;;;;;5.30;1.27;;;;;;;15.43;27.10;101221.69;5108498;28;20474;-54
2021/04/27 08:57:23;;;;;;;6.33;1.90;;;;;;;14.93;27.70;101228.00;5116227;28;20480;-49
2021/04/27 08:59:51;;;;;;;5.27;1.80;;;;;;;14.97;28.58;101224.66;5105608;28;20522;-52
2021/04/27 09:02:26;;;;;;;4.30;1.20;;;;;;;14.87;28.10;101220.00;5096023;28;20839;-50
2021/04/27 09:04:53;;;;;;;4.80;1.57;;;;;;;14.98;28.16;101221.22;5094770;28;20480;-52
2021/04/27 09:07:22;;;;;;;4.40;1.37;;;;;;;15.38;27.56;101210.25;5095569;28;20512;-50
2021/04/27 09:09:51;;;;;;;4.87;1.50;;;;;;;15.02;27.24;101216.16;5093938;28;20569;-52
2021/04/27 09:12:20;;;;;;;3.60;1.10;;;;;;;15.56;27.05;101209.03;5095440;28;20452;-48
2021/04/27 09:14:47;;;;;;;3.10;1.00;;;;;;;15.98;26.97;101202.41;5094067;28;20482;-51
2021/04/27 09:17:14;;;;;;;10.63;1.50;;;;;;;15.97;26.64;101206.75;5095365;28;20458;-55
2021/04/27 09:19:44;;;;;;;8.27;1.67;;;;;;;15.93;25.06;101204.88;5094153;28;20504;-51
2021/04/27 09:22:18;;;;;;;4.90;1.50;;;;;;;14.81;26.57;101201.63;5095483;28;21018;-54
2021/04/27 09:24:47;;;;;;;5.80;1.60;;;;;;;15.02;27.23;101200.56;5094432;28;20933;-54
2021/04/27 09:27:26;;;;;;;3.57;1.20;;;;;;;15.19;26.88;101188.97;5098999;28;20453;-49
2021/04/27 09:29:53;;;;;;;6.30;1.70;;;;;;;14.48;27.78;101186.72;5093966;28;20907;-53
2021/04/27 09:32:31;;;;;;;4.93;1.23;;;;;;;15.19;25.93;101188.97;5095134;28;20473;-52
2021/04/27 09:34:59;;;;;;;3.60;1.27;;;;;;;15.56;25.72;101183.03;5094325;28;20482;-51
2021/04/27 09:37:25;;;;;;;6.33;1.40;;;;;;;15.55;25.81;101178.66;5095069;28;20462;-50
2021/04/27 09:39:53;;;;;;;4.90;1.37;;;;;;;15.37;26.40;101177.31;5093630;28;20484;-53
2021/04/27 09:42:21;;;;;;;6.27;1.83;;;;;;;15.37;25.99;101177.31;5095162;28;20473;-49
2021/04/27 09:44:51;;;;;;;6.33;1.53;;;;;;;15.66;25.73;101174.66;5094140;28;20560;-50
2021/04/27 09:47:21;;;;;;;5.03;1.47;;;;;;;15.19;26.86;101180.25;5095080;28;20560;-54
2021/04/27 09:49:56;;;;;;;7.80;1.70;;;;;;;15.37;26.36;101167.81;5106862;28;20475;-50
2021/04/27 09:52:24;;;;;;;7.63;1.87;;;;;;;15.40;26.89;101161.81;5115558;28;20461;-50
2021/04/27 09:54:59;;;;;;;6.60;1.50;;;;;;;15.97;25.87;101159.00;5114432;28;20480;-49
2021/04/27 09:57:26;;;;;;;4.63;1.33;;;;;;;16.19;24.76;101156.13;5114976;28;20456;-51
2021/04/27 09:59:55;;;;;;;4.70;1.33;;;;;;;16.12;24.15;101158.53;5114014;28;20491;-52
2021/04/27 10:02:22;;;;;;;7.07;1.30;;;;;;;15.66;24.98;101169.44;5115465;28;20932;-51
2021/04/27 10:04:50;;;;;;;3.70;1.27;;;;;;;15.91;24.68;101149.28;5114339;28;20475;-50
2021/04/27 10:07:17;;;;;;;3.70;1.40;;;;;;;15.67;25.37;101153.00;5110130;28;20548;-51
2021/04/27 10:09:47;;;;;;;12.13;1.50;;;;;;;15.92;25.23;101140.69;5093484;28;20516;-52
2021/04/27 10:12:14;;;;;;;5.37;1.40;;;;;;;16.04;25.35;101148.81;5101954;28;20496;-50
2021/04/27 10:14:40;;;;;;;6.00;1.80;;;;;;;16.10;25.84;101139.41;5099625;28;20475;-50
2021/04/27 10:17:15;;;;;;;4.70;1.37;;;;;;;15.75;25.29;101138.47;5099268;28;20607;-51
2021/04/27 10:19:43;;;;;;;3.60;1.30;;;;;;;16.20;25.01;101143.97;5093251;28;20469;-53
2021/04/27 10:22:11;;;;;;;4.40;1.30;;;;;;;16.57;23.99;101130.97;5095061;28;20564;-48
2021/04/27 10:24:38;;;;;;;4.03;1.27;;;;;;;16.09;23.78;101145.44;5095102;28;20469;-49
2021/04/27 10:27:05;;;;;;;4.50;1.07;;;;;;;16.17;23.22;101138.69;5105108;28;20472;-54
2021/04/27 10:29:32;;;;;;;4.37;1.37;;;;;;;15.94;23.64;101133.78;5113620;28;20471;-48
2021/04/27 10:32:20;;;;;;;5.30;1.33;;;;;;;14.76;25.71;101115.78;5116960;28;20560;-50
2021/04/27 10:35:06;;;;;;;3.23;1.20;;;;;;;16.13;25.09;101108.22;5115970;28;20476;-49
2021/04/27 10:37:59;;;;;;;4.10;1.40;;;;;;;16.66;24.56;101115.53;5106481;28;20777;-51
2021/04/27 10:40:47;;;;;;;3.63;1.07;;;;;;;16.64;23.43;101099.00;5117184;28;20477;-48
2021/04/27 10:43:32;;;;;;;6.83;1.30;;;;;;;16.95;23.57;101093.56;5119044;28;20539;-53
2021/04/27 10:46:00;;;;;;;4.20;1.13;;;;;;;16.17;23.16;101097.94;5117554;28;20480;-50
2021/04/27 10:48:30;;;;;;;4.20;1.10;;;;;;;16.39;23.79;101097.53;5118497;28;20536;-48
2021/04/27 10:50:59;;;;;;;10.33;1.07;;;;;;;16.73;23.64;101098.31;5117061;28;20479;-53
2021/04/27 10:53:30;;;;;;;5.20;1.30;;;;;;;17.01;23.02;101093.69;5118633;28;20460;-50
2021/04/27 10:55:57;;;;;;;4.80;1.13;;;;;;;17.36;22.13;101077.91;5117418;28;20479;-49
2021/04/27 10:58:44;;;;;;;3.47;1.20;;;;;;;17.23;22.44;101083.72;5118496;28;20842;-50
2021/04/27 11:01:20;;;;;;;3.50;0.70;;;;;;;16.55;22.79;101081.44;5116790;28;20500;-48
2021/04/27 11:03:52;;;;;;;4.50;1.17;;;;;;;17.13;23.45;101080.94;5118619;28;20452;-51
2021/04/27 11:06:19;;;;;;;8.30;1.13;;;;;;;17.14;21.95;101080.06;5116953;28;20560;-51
2021/04/27 11:08:48;;;;;;;5.77;0.97;;;;;;;16.45;22.63;101074.25;5118497;28;20539;-51
2021/04/27 11:11:24;;;;;;;4.13;1.27;;;;;;;16.86;22.74;101074.28;5116560;28;20791;-53
2021/04/27 11:13:52;;;;;;;3.50;1.00;;;;;;;17.06;22.84;101071.22;5118192;28;20463;-50
2021/04/27 11:16:24;;;;;;;4.80;1.30;;;;;;;16.88;23.16;101064.75;5116638;28;20773;-49
2021/04/27 11:18:52;;;;;;;3.53;1.00;;;;;;;17.38;21.45;101062.28;5118286;28;20567;-51
2021/04/27 11:21:20;;;;;;;4.70;1.33;;;;;;;17.47;21.36;101061.53;5116377;28;20477;-50
2021/04/27 11:23:51;;;;;;;3.33;1.00;;;;;;;17.58;20.77;101060.00;5117988;28;20470;-48
2021/04/27 11:26:40;;;;;;;5.53;1.40;;;;;;;17.31;21.28;101053.47;5116634;28;20511;-50
2021/04/27 11:29:09;;;;;;;3.70;1.10;;;;;;;17.89;20.84;101050.09;5116848;28;20459;-54
2021/04/27 11:32:01;;;;;;;3.93;0.80;;;;;;;17.47;20.99;101051.13;5113286;28;20486;-53